createdAt,value
2019-05-18T00:02:01.753Z,30.17
2019-05-18T00:04:33.373Z,28.33
2019-05-18T00:07:04.638Z,29.03
2019-05-18T00:09:35.774Z,27.27
2019-05-18T00:12:06.736Z,30.30
2019-05-18T00:14:37.647Z,29.57
2019-05-18T00:17:23.155Z,31.27
2019-05-18T00:19:42.142Z,27.90
2019-05-18T00:22:13.054Z,28.60
2019-05-18T00:24:44.063Z,28.67
2019-05-18T00:27:14.776Z,27.83
2019-05-18T00:29:45.550Z,29.83
2019-05-18T00:32:16.649Z,27.30
2019-05-18T00:34:48.007Z,26.57
2019-05-18T00:37:19.249Z,27.70
2019-05-18T00:39:50.237Z,26.87
2019-05-18T00:42:20.907Z,29.37
2019-05-18T00:44:52.110Z,29.10
2019-05-18T00:47:22.983Z,26.20
2019-05-18T00:49:53.707Z,27.87
2019-05-18T00:52:24.455Z,25.97
2019-05-18T00:54:55.473Z,25.80
2019-05-18T00:57:26.485Z,26.07
2019-05-18T00:59:57.383Z,26.30
2019-05-18T01:02:29.267Z,26.07
2019-05-18T01:05:00.702Z,27.10
2019-05-18T01:07:31.525Z,27.13
2019-05-18T01:10:02.401Z,30.77
2019-05-18T01:12:33.343Z,28.90
2019-05-18T01:15:06.178Z,28.10
2019-05-18T01:17:37.333Z,27.90
2019-05-18T01:20:09.002Z,27.80
2019-05-18T01:22:39.642Z,26.63
2019-05-18T01:25:10.899Z,30.70
2019-05-18T01:27:41.834Z,28.10
2019-05-18T01:30:13.626Z,29.53
2019-05-18T01:32:44.258Z,28.20
2019-05-18T01:35:15.640Z,28.77
2019-05-18T01:37:46.287Z,27.33
2019-05-18T01:40:17.621Z,26.67
2019-05-18T01:42:49.498Z,28.37
2019-05-18T01:45:20.202Z,28.90
2019-05-18T01:47:50.768Z,29.93
2019-05-18T01:50:22.585Z,28.80
2019-05-18T01:52:53.502Z,29.13
2019-05-18T01:55:25.534Z,26.70
2019-05-18T01:57:56.362Z,29.40
2019-05-18T02:00:27.062Z,28.87
2019-05-18T02:02:59.000Z,30.80
2019-05-18T02:05:29.767Z,29.80
2019-05-18T02:08:01.033Z,27.40
2019-05-18T02:10:31.692Z,26.20
2019-05-18T02:13:02.915Z,23.83
2019-05-18T02:15:33.778Z,25.80
2019-05-18T02:18:04.496Z,27.53
2019-05-18T02:20:35.626Z,27.13
2019-05-18T02:23:06.313Z,26.37
2019-05-18T02:25:37.044Z,29.10
2019-05-18T02:28:07.886Z,25.37
2019-05-18T02:30:38.468Z,27.10
2019-05-18T02:33:09.331Z,28.10
2019-05-18T02:35:40.076Z,25.97
2019-05-18T02:38:17.654Z,25.93
2019-05-18T02:40:48.890Z,26.67
2019-05-18T02:43:20.385Z,23.50
2019-05-18T02:45:51.106Z,24.40
2019-05-18T02:48:21.865Z,21.40
2019-05-18T02:50:52.615Z,21.83
2019-05-18T02:53:23.566Z,21.70
2019-05-18T02:55:55.095Z,22.13
2019-05-18T02:58:26.044Z,21.10
2019-05-18T03:00:56.759Z,24.70
2019-05-18T03:03:28.602Z,26.13
2019-05-18T03:05:59.497Z,27.57
2019-05-18T03:08:30.403Z,24.23
2019-05-18T03:11:01.623Z,23.83
2019-05-18T03:13:32.459Z,26.90
2019-05-18T03:16:03.575Z,26.27
2019-05-18T03:18:34.769Z,30.23
2019-05-18T03:21:05.684Z,29.73
2019-05-18T03:23:36.753Z,27.57
2019-05-18T03:26:07.489Z,24.40
2019-05-18T03:28:38.212Z,27.00
2019-05-18T03:31:09.077Z,26.43
2019-05-18T03:33:40.054Z,28.63
2019-05-18T03:36:11.107Z,29.43
2019-05-18T03:38:41.982Z,26.17
2019-05-18T03:41:12.816Z,26.17
2019-05-18T03:43:43.694Z,26.77
2019-05-18T03:46:14.558Z,26.80
2019-05-18T03:48:45.388Z,26.67
2019-05-18T03:51:16.231Z,24.10
2019-05-18T03:53:47.030Z,26.27
2019-05-18T03:56:17.823Z,24.40
2019-05-18T03:58:48.560Z,25.27
2019-05-18T04:01:20.391Z,22.93
2019-05-18T04:03:52.057Z,25.17
2019-05-18T04:06:22.748Z,26.60
2019-05-18T04:08:53.472Z,26.00
2019-05-18T04:11:24.218Z,24.67
2019-05-18T04:13:55.181Z,26.83
2019-05-18T04:16:26.359Z,26.27
2019-05-18T04:18:57.465Z,24.20
2019-05-18T04:21:28.483Z,24.30
2019-05-18T04:23:59.464Z,25.00
2019-05-18T04:26:30.381Z,23.30
2019-05-18T04:29:01.146Z,25.80
2019-05-18T04:31:33.436Z,23.70
2019-05-18T04:34:04.153Z,24.30
2019-05-18T04:36:34.922Z,25.47
2019-05-18T04:39:07.308Z,26.67
2019-05-18T04:41:38.358Z,25.67
2019-05-18T04:44:09.476Z,25.87
2019-05-18T04:46:40.830Z,24.67
2019-05-18T04:49:11.688Z,28.50
2019-05-18T04:51:42.389Z,27.10
2019-05-18T04:54:13.364Z,26.13
2019-05-18T04:56:44.411Z,26.20
2019-05-18T04:59:16.176Z,26.53
2019-05-18T05:01:47.025Z,27.90
2019-05-18T05:04:17.845Z,34.40
2019-05-18T05:06:48.586Z,39.30
2019-05-18T05:09:19.404Z,28.63
2019-05-18T05:11:50.209Z,24.47
2019-05-18T05:14:23.017Z,43.77
2019-05-18T05:16:54.019Z,27.17
2019-05-18T05:19:24.832Z,26.53
2019-05-18T05:21:55.733Z,25.53
2019-05-18T05:24:26.664Z,25.60
2019-05-18T05:26:57.700Z,25.60
2019-05-18T05:29:28.300Z,25.37
2019-05-18T05:31:59.167Z,23.97
2019-05-18T05:34:30.349Z,25.27
2019-05-18T05:37:01.630Z,25.53
2019-05-18T05:39:32.510Z,24.13
2019-05-18T05:42:03.131Z,25.53
2019-05-18T05:44:34.675Z,24.30
2019-05-18T05:47:05.365Z,21.50
2019-05-18T05:49:36.037Z,22.67
2019-05-18T05:52:06.775Z,21.70
2019-05-18T05:54:37.544Z,22.80
2019-05-18T05:57:08.307Z,21.87
2019-05-18T05:59:39.430Z,21.70
2019-05-18T06:02:10.376Z,22.60
2019-05-18T06:04:42.195Z,21.33
2019-05-18T06:07:13.008Z,21.63
2019-05-18T06:09:43.914Z,21.13
2019-05-18T06:12:14.578Z,21.17
2019-05-18T06:14:45.373Z,22.00
2019-05-18T06:17:16.427Z,19.70
2019-05-18T06:19:48.760Z,20.67
2019-05-18T06:22:19.615Z,18.97
2019-05-18T06:24:50.796Z,18.67
2019-05-18T06:27:21.793Z,18.53
2019-05-18T06:29:52.753Z,18.63
2019-05-18T06:32:23.767Z,19.10
2019-05-18T06:34:54.377Z,17.20
2019-05-18T06:37:25.529Z,17.07
2019-05-18T06:39:56.598Z,17.57
2019-05-18T06:42:27.990Z,17.50
2019-05-18T06:44:59.081Z,16.33
2019-05-18T06:47:30.312Z,16.83
2019-05-18T06:50:01.175Z,16.20
2019-05-18T06:52:32.950Z,15.90
2019-05-18T06:55:05.148Z,17.40
2019-05-18T06:57:37.138Z,17.97
2019-05-18T07:00:10.969Z,16.40
2019-05-18T07:02:42.500Z,16.70
2019-05-18T07:05:14.102Z,17.27
2019-05-18T07:07:44.692Z,17.07
2019-05-18T07:10:15.823Z,17.53
2019-05-18T07:12:46.673Z,16.52
2019-05-18T07:15:18.272Z,16.07
2019-05-18T07:17:49.052Z,16.73
2019-05-18T07:20:21.481Z,16.65
2019-05-18T07:22:52.118Z,17.52
2019-05-18T07:25:22.918Z,14.93
2019-05-18T07:27:53.821Z,15.32
2019-05-18T07:30:25.159Z,14.83
2019-05-18T07:32:56.141Z,15.15
2019-05-18T07:35:28.586Z,16.42
2019-05-18T07:37:59.364Z,14.63
2019-05-18T07:40:31.562Z,19.95
2019-05-18T07:43:02.622Z,15.75
2019-05-18T07:45:33.763Z,15.38
2019-05-18T07:48:04.883Z,15.75
2019-05-18T07:50:35.924Z,17.45
2019-05-18T07:53:07.094Z,15.63
2019-05-18T07:55:37.654Z,15.15
2019-05-18T07:58:08.712Z,14.65
2019-05-18T08:00:39.370Z,16.17
2019-05-18T08:03:10.508Z,16.20
2019-05-18T08:05:41.423Z,15.20
2019-05-18T08:08:12.725Z,15.38
2019-05-18T08:10:43.900Z,14.75
2019-05-18T08:13:15.694Z,13.75
2019-05-18T08:15:46.921Z,14.93
2019-05-18T08:18:17.869Z,13.72
2019-05-18T08:20:49.495Z,13.08
2019-05-18T08:23:20.284Z,11.53
2019-05-18T08:25:51.212Z,12.47
2019-05-18T08:28:23.290Z,13.43
2019-05-18T08:30:56.503Z,13.10
2019-05-18T08:33:28.091Z,12.28
2019-05-18T08:36:00.155Z,12.43
2019-05-18T08:38:31.284Z,11.95
2019-05-18T08:41:02.843Z,12.65
2019-05-18T08:43:34.630Z,13.43
2019-05-18T08:46:05.750Z,13.25
2019-05-18T08:48:37.370Z,13.95
2019-05-18T08:51:07.945Z,12.60
2019-05-18T08:53:39.380Z,12.58
2019-05-18T08:56:10.587Z,12.65
2019-05-18T08:58:41.725Z,13.50
2019-05-18T09:01:12.401Z,13.43
2019-05-18T09:03:43.550Z,14.40
2019-05-18T09:06:16.271Z,14.45
2019-05-18T09:08:47.125Z,12.68
2019-05-18T09:11:18.371Z,14.83
2019-05-18T09:13:49.308Z,12.58
2019-05-18T09:16:20.069Z,13.28
2019-05-18T09:18:52.043Z,12.85
2019-05-18T09:21:23.304Z,14.07
2019-05-18T09:23:54.817Z,13.83
2019-05-18T09:26:26.080Z,14.15
2019-05-18T09:28:58.854Z,15.05
2019-05-18T09:31:29.734Z,14.93
2019-05-18T09:34:01.460Z,16.23
2019-05-18T09:36:32.049Z,15.40
2019-05-18T09:39:05.324Z,11.93
2019-05-18T09:41:36.752Z,9.80
2019-05-18T09:44:07.970Z,10.20
2019-05-18T09:46:38.700Z,11.85
2019-05-18T09:49:09.530Z,11.70
2019-05-18T09:51:40.935Z,11.85
2019-05-18T09:54:12.060Z,13.58
2019-05-18T09:56:43.610Z,14.15
2019-05-18T09:59:15.131Z,15.15
2019-05-18T10:01:46.145Z,16.30
2019-05-18T10:04:17.589Z,15.80
2019-05-18T10:06:49.114Z,15.60
2019-05-18T10:09:20.407Z,14.70
2019-05-18T10:11:51.668Z,17.05
2019-05-18T10:14:22.699Z,16.70
2019-05-18T10:16:54.266Z,15.30
2019-05-18T10:19:26.383Z,15.75
2019-05-18T10:21:57.324Z,16.35
2019-05-18T10:24:28.831Z,15.35
2019-05-18T10:27:00.712Z,14.33
2019-05-18T10:29:33.668Z,15.38
2019-05-18T10:32:05.174Z,14.73
2019-05-18T10:34:35.728Z,14.60
2019-05-18T10:37:06.873Z,16.23
2019-05-18T10:39:38.874Z,15.30
2019-05-18T10:42:09.856Z,13.98
2019-05-18T10:44:41.203Z,15.38
2019-05-18T10:47:12.549Z,13.90
2019-05-18T10:49:44.122Z,13.58
2019-05-18T10:52:14.908Z,14.03
2019-05-18T10:54:45.579Z,14.38
2019-05-18T10:57:16.429Z,16.07
2019-05-18T10:59:47.492Z,14.38
2019-05-18T11:02:18.409Z,15.10
2019-05-18T11:04:49.137Z,14.58
2019-05-18T11:07:20.140Z,14.53
2019-05-18T11:09:51.083Z,13.20
2019-05-18T11:12:23.264Z,14.45
2019-05-18T11:14:55.448Z,11.30
2019-05-18T11:17:26.851Z,10.45
2019-05-18T11:19:58.044Z,9.05
2019-05-18T11:22:28.974Z,10.80
2019-05-18T11:24:59.942Z,10.55
2019-05-18T11:27:31.055Z,8.60
2019-05-18T11:30:03.067Z,9.80
2019-05-18T11:32:34.109Z,9.55
2019-05-18T11:35:06.979Z,11.20
2019-05-18T11:37:37.638Z,10.45
2019-05-18T11:40:10.302Z,9.80
2019-05-18T11:42:41.738Z,8.25
2019-05-18T11:45:15.519Z,9.58
2019-05-18T11:47:47.252Z,8.55
2019-05-18T11:50:19.839Z,8.23
2019-05-18T11:52:51.371Z,5.00
2019-05-18T11:55:23.154Z,5.33
2019-05-18T11:57:53.764Z,5.12
2019-05-18T12:00:25.261Z,5.53
2019-05-18T12:02:56.204Z,5.28
2019-05-18T12:05:27.048Z,6.17
2019-05-18T12:07:59.205Z,5.80
2019-05-18T12:10:30.512Z,5.97
2019-05-18T12:13:02.548Z,6.05
2019-05-18T12:15:33.698Z,6.12
2019-05-18T12:18:04.782Z,5.47
2019-05-18T12:20:36.337Z,4.67
2019-05-18T12:23:08.281Z,5.37
2019-05-18T12:25:39.945Z,5.60
2019-05-18T12:28:13.745Z,4.92
2019-05-18T12:30:44.799Z,5.20
2019-05-18T12:33:16.029Z,5.37
2019-05-18T12:35:47.173Z,5.08
2019-05-18T12:38:18.039Z,5.17
2019-05-18T12:40:49.276Z,5.62
2019-05-18T12:43:20.161Z,5.42
2019-05-18T12:45:50.811Z,5.12
2019-05-18T12:48:21.882Z,5.67
2019-05-18T12:50:54.061Z,5.58
2019-05-18T12:53:24.632Z,5.12
2019-05-18T12:55:55.609Z,5.50
2019-05-18T12:58:26.426Z,5.17
2019-05-18T13:00:57.129Z,5.22
2019-05-18T13:03:28.236Z,4.37
2019-05-18T13:05:59.186Z,4.67
2019-05-18T13:08:30.650Z,4.67
2019-05-18T13:11:01.332Z,4.62
2019-05-18T13:13:32.224Z,4.10
2019-05-18T13:16:03.345Z,4.45
2019-05-18T13:18:34.811Z,4.53
2019-05-18T13:21:05.708Z,4.40
2019-05-18T13:23:38.241Z,4.90
2019-05-18T13:26:10.072Z,4.65
2019-05-18T13:28:40.860Z,4.22
2019-05-18T13:31:11.399Z,3.77
2019-05-18T13:33:42.745Z,4.05
2019-05-18T13:36:13.394Z,4.50
2019-05-18T13:38:44.145Z,3.85
2019-05-18T13:41:14.687Z,4.00
2019-05-18T13:43:45.245Z,4.42
2019-05-18T13:46:16.119Z,4.65
2019-05-18T13:48:47.120Z,4.47
2019-05-18T13:51:17.773Z,4.80
2019-05-18T13:53:48.473Z,4.05
2019-05-18T13:56:19.937Z,3.90
2019-05-18T13:58:51.295Z,3.40
2019-05-18T14:01:22.270Z,3.67
2019-05-18T14:03:53.129Z,4.15
2019-05-18T14:06:24.816Z,4.08
2019-05-18T14:08:55.867Z,4.37
2019-05-18T14:11:26.856Z,4.17
2019-05-18T14:13:57.628Z,4.15
2019-05-18T14:16:28.460Z,3.58
2019-05-18T14:18:59.225Z,3.87
2019-05-18T14:21:29.977Z,4.47
2019-05-18T14:24:00.663Z,4.47
2019-05-18T14:26:31.522Z,4.28
2019-05-18T14:29:02.208Z,4.03
2019-05-18T14:31:34.523Z,3.75
2019-05-18T14:34:05.618Z,3.98
2019-05-18T14:36:36.901Z,4.33
2019-05-18T14:39:07.783Z,4.05
2019-05-18T14:41:42.196Z,3.87
2019-05-18T14:44:11.092Z,4.28
2019-05-18T14:46:41.726Z,4.40
2019-05-18T14:49:12.416Z,4.70
2019-05-18T14:51:43.083Z,4.30
2019-05-18T14:54:13.792Z,3.65
2019-05-18T14:56:44.751Z,3.95
2019-05-18T14:59:15.790Z,3.92
2019-05-18T15:01:47.386Z,3.85
2019-05-18T15:04:18.351Z,4.22
2019-05-18T15:06:49.133Z,3.65
2019-05-18T15:09:20.047Z,4.03
2019-05-18T15:11:50.979Z,3.65
2019-05-18T15:14:21.688Z,4.03
2019-05-18T15:16:53.013Z,3.92
2019-05-18T15:19:24.257Z,4.00
2019-05-18T15:21:55.079Z,4.17
2019-05-18T15:24:26.813Z,4.35
2019-05-18T15:26:57.571Z,4.17
2019-05-18T15:29:28.335Z,4.10
2019-05-18T15:31:59.369Z,3.87
2019-05-18T15:34:31.325Z,4.15
2019-05-18T15:37:02.549Z,4.15
2019-05-18T15:39:33.507Z,4.60
2019-05-18T15:42:05.358Z,3.72
2019-05-18T15:44:36.656Z,4.45
2019-05-18T15:47:08.444Z,4.30
2019-05-18T15:49:39.294Z,4.05
2019-05-18T15:52:10.202Z,4.47
2019-05-18T15:54:41.560Z,4.12
2019-05-18T15:57:12.276Z,4.08
2019-05-18T15:59:42.996Z,5.12
2019-05-18T16:02:13.729Z,4.80
2019-05-18T16:04:44.377Z,3.98
2019-05-18T16:07:15.144Z,4.10
2019-05-18T16:09:46.058Z,4.05
2019-05-18T16:12:17.009Z,4.28
2019-05-18T16:14:48.631Z,4.35
2019-05-18T16:17:19.387Z,3.92
2019-05-18T16:19:50.055Z,3.87
2019-05-18T16:22:20.949Z,4.50
2019-05-18T16:24:51.626Z,3.77
2019-05-18T16:27:22.531Z,4.40
2019-05-18T16:29:53.176Z,3.83
2019-05-18T16:32:24.414Z,3.92
2019-05-18T16:34:55.234Z,4.33
2019-05-18T16:37:26.249Z,4.17
2019-05-18T16:39:56.879Z,4.15
2019-05-18T16:42:29.230Z,4.37
2019-05-18T16:45:00.248Z,4.58
2019-05-18T16:47:31.145Z,4.20
2019-05-18T16:50:02.009Z,4.20
2019-05-18T16:52:32.794Z,4.10
2019-05-18T16:55:04.037Z,4.08
2019-05-18T16:57:34.968Z,3.80
2019-05-18T17:00:10.900Z,3.95
2019-05-18T17:02:42.135Z,4.03
2019-05-18T17:05:14.128Z,4.00
2019-05-18T17:07:44.855Z,4.12
2019-05-18T17:10:16.834Z,4.08
2019-05-18T17:12:47.669Z,4.20
2019-05-18T17:15:19.091Z,3.90
2019-05-18T17:17:49.759Z,4.03
2019-05-18T17:20:20.974Z,4.00
2019-05-18T17:22:52.371Z,4.00
2019-05-18T17:25:23.258Z,3.95
2019-05-18T17:27:55.527Z,3.83
2019-05-18T17:30:26.653Z,3.72
2019-05-18T17:32:57.438Z,4.05
2019-05-18T17:35:28.305Z,3.95
2019-05-18T17:37:58.959Z,4.05
2019-05-18T17:40:29.792Z,4.30
2019-05-18T17:43:00.343Z,4.28
2019-05-18T17:45:31.231Z,3.85
2019-05-18T17:48:02.023Z,4.03
2019-05-18T17:50:33.235Z,4.28
2019-05-18T17:53:04.418Z,4.28
2019-05-18T17:55:35.281Z,4.28
2019-05-18T17:58:06.377Z,4.60
2019-05-18T18:00:38.428Z,4.47
2019-05-18T18:03:10.164Z,4.17
2019-05-18T18:05:42.413Z,4.37
2019-05-18T18:08:13.660Z,4.78
2019-05-18T18:10:45.484Z,4.92
2019-05-18T18:13:16.257Z,4.75
2019-05-18T18:15:47.071Z,4.60
2019-05-18T18:18:18.891Z,5.30
2019-05-18T18:20:49.820Z,6.45
2019-05-18T18:23:20.953Z,6.80
2019-05-18T18:25:51.783Z,6.62
2019-05-18T18:28:22.555Z,8.85
2019-05-18T18:30:53.300Z,8.00
2019-05-18T18:33:24.120Z,7.17
2019-05-18T18:35:55.149Z,7.15
2019-05-18T18:38:26.016Z,6.87
2019-05-18T18:40:56.671Z,6.78
2019-05-18T18:43:27.549Z,13.60
2019-05-18T18:45:58.327Z,15.20
2019-05-18T18:48:30.403Z,11.47
2019-05-18T18:51:01.222Z,10.60
2019-05-18T18:53:32.033Z,12.07
2019-05-18T18:56:04.194Z,17.17
2019-05-18T18:58:35.214Z,14.63
2019-05-18T19:01:07.210Z,12.63
2019-05-18T19:03:38.176Z,14.90
2019-05-18T19:06:09.246Z,10.80
2019-05-18T19:08:40.537Z,9.17
2019-05-18T19:11:12.792Z,11.87
2019-05-18T19:13:45.948Z,12.33
2019-05-18T19:16:17.089Z,13.93
2019-05-18T19:18:48.009Z,17.20
2019-05-18T19:21:18.726Z,16.33
2019-05-18T19:23:49.464Z,17.83
2019-05-18T19:26:20.418Z,19.33
2019-05-18T19:28:51.255Z,15.43
2019-05-18T19:31:21.996Z,14.50
2019-05-18T19:33:52.892Z,13.73
2019-05-18T19:36:24.147Z,11.63
2019-05-18T19:38:54.797Z,12.43
2019-05-18T19:41:26.506Z,13.87
2019-05-18T19:43:57.413Z,14.67
2019-05-18T19:46:28.203Z,13.20
2019-05-18T19:48:59.064Z,10.23
2019-05-18T19:51:30.976Z,9.27
2019-05-18T19:54:03.219Z,10.57
2019-05-18T19:56:39.171Z,10.73
2019-05-18T19:59:06.877Z,11.80
2019-05-18T20:01:38.787Z,14.37
2019-05-18T20:04:09.925Z,16.90
2019-05-18T20:06:41.883Z,17.30
2019-05-18T20:09:14.687Z,19.30
2019-05-18T20:11:46.492Z,19.30
2019-05-18T20:14:17.672Z,20.13
2019-05-18T20:16:48.602Z,20.10
2019-05-18T20:19:19.839Z,22.83
2019-05-18T20:21:51.102Z,20.80
2019-05-18T20:24:24.045Z,19.63
2019-05-18T20:26:56.239Z,22.60
2019-05-18T20:29:27.611Z,20.33
2019-05-18T20:31:59.332Z,19.10
2019-05-18T20:34:30.525Z,18.57
2019-05-18T20:37:01.507Z,20.90
2019-05-18T20:39:32.259Z,20.60
2019-05-18T20:42:03.462Z,17.43
2019-05-18T20:44:34.467Z,18.80
2019-05-18T20:47:05.201Z,15.73
2019-05-18T20:49:35.870Z,19.30
2019-05-18T20:52:06.957Z,20.60
2019-05-18T20:54:37.664Z,20.80
2019-05-18T20:57:08.566Z,20.80
2019-05-18T20:59:39.460Z,20.50
2019-05-18T21:02:11.541Z,18.07
2019-05-18T21:04:43.527Z,19.40
2019-05-18T21:07:14.549Z,17.97
2019-05-18T21:09:45.322Z,15.60
2019-05-18T21:12:16.172Z,13.53
2019-05-18T21:14:47.335Z,13.50
2019-05-18T21:17:18.366Z,13.00
2019-05-18T21:19:49.381Z,12.67
2019-05-18T21:22:20.110Z,12.43
2019-05-18T21:24:50.930Z,17.03
2019-05-18T21:27:21.667Z,16.70
2019-05-18T21:29:52.570Z,16.77
2019-05-18T21:32:23.599Z,16.20
2019-05-18T21:34:54.844Z,16.17
2019-05-18T21:37:25.540Z,17.00
2019-05-18T21:39:56.192Z,20.07
2019-05-18T21:42:26.912Z,19.67
2019-05-18T21:44:58.542Z,20.63
2019-05-18T21:47:29.369Z,22.90
2019-05-18T21:50:00.100Z,21.87
2019-05-18T21:52:31.571Z,18.97
2019-05-18T21:55:02.802Z,18.17
2019-05-18T21:57:33.772Z,22.30
2019-05-18T22:00:05.761Z,21.83
2019-05-18T22:02:38.097Z,23.23
2019-05-18T22:05:09.099Z,21.53
2019-05-18T22:07:41.332Z,21.27
2019-05-18T22:10:24.972Z,21.93
2019-05-18T22:12:44.922Z,19.73
2019-05-18T22:15:16.270Z,20.77
2019-05-18T22:18:05.321Z,19.67
2019-05-18T22:20:43.512Z,18.30
2019-05-18T22:23:10.756Z,20.37
2019-05-18T22:25:42.462Z,19.77
2019-05-18T22:28:14.250Z,18.53
2019-05-18T22:30:45.398Z,17.33
2019-05-18T22:33:16.170Z,15.63
2019-05-18T22:35:47.327Z,13.23
2019-05-18T22:38:18.436Z,11.80
2019-05-18T22:40:49.465Z,11.27
2019-05-18T22:43:20.875Z,11.43
2019-05-18T22:45:52.605Z,10.13
2019-05-18T22:48:40.461Z,11.27
2019-05-18T22:50:58.221Z,12.00
2019-05-18T22:53:29.575Z,14.13
2019-05-18T22:56:00.460Z,14.23
2019-05-18T22:58:32.034Z,13.03
2019-05-18T23:01:02.989Z,14.20
2019-05-18T23:03:35.391Z,17.33
2019-05-18T23:06:07.691Z,15.63
2019-05-18T23:08:38.599Z,15.97
2019-05-18T23:11:09.552Z,17.60
2019-05-18T23:13:40.177Z,16.67
2019-05-18T23:16:11.296Z,14.87
2019-05-18T23:18:55.923Z,14.97
2019-05-18T23:21:14.762Z,18.17
2019-05-18T23:23:46.186Z,16.33
2019-05-18T23:26:18.688Z,16.23
2019-05-18T23:28:49.674Z,15.77
2019-05-18T23:31:20.945Z,16.73
2019-05-18T23:33:51.678Z,17.40
2019-05-18T23:36:22.440Z,18.00
2019-05-18T23:38:53.448Z,13.93
2019-05-18T23:41:24.436Z,14.13
2019-05-18T23:43:55.333Z,14.10
2019-05-18T23:46:26.264Z,15.60
2019-05-18T23:49:09.995Z,17.07
2019-05-18T23:51:30.015Z,16.07
2019-05-18T23:54:00.716Z,17.13
2019-05-18T23:56:31.510Z,14.97
2019-05-18T23:59:03.023Z,12.90
